• Join FlightAware (Why Join?)
  • Login
  • US Flag 
10:55PM EST


 

Airport Tracker/Info


-or-


 

Live Flight TrackerFlight Track Log ✈ N8932U ✈ 03-Oct-2013 ✈ KCRG - KLAL

Flight Track Log - Related Links

Times and Time Zones

All times are in EDT time to prevent confusion due to time zone crossing. See the N8932U flight status page for this flight to view local times or setup timezone preferences in your user account.

Time Position Orientation Groundspeed Altitude Reporting Facility
EDT Latitude Longitude Course Direction KTS MPH feet Rate Location/Type
07:11PM 30.3550 -81.5108 354° North 116 133 1,200  Level Jacksonville Center
07:12PM 30.3575 -81.5492 274° West 116 133 2,300 1,080 Climbing Jacksonville Center
07:13PM 30.3494 -81.5808 254° West 112 129 3,400 960 Climbing Jacksonville Center
07:14PM 30.3225 -81.5956 205° Southwest 107 123 4,300 840 Climbing Jacksonville Center
07:15PM 30.2956 -81.6078 201° Southwest 108 124 5,200 840 Climbing Jacksonville Center
07:16PM 30.2644 -81.6250 206° Southwest 110 127 6,200 840 Climbing Jacksonville Center
07:17PM 30.2353 -81.6375 200° South 113 130 7,000 420 Climbing Jacksonville Center
07:18PM 30.1981 -81.6597 207° Southwest 156 180 7,100  Climbing Jacksonville Center
07:19PM 30.1606 -81.6794 204° Southwest 160 184 7,100 -60 Level Jacksonville Center
07:20PM 30.1169 -81.7014 204° Southwest 165 190 7,000 -60 Descending Jacksonville Center
07:21PM 30.0711 -81.7236 203° Southwest 162 186 7,000  Level Jacksonville Center
07:22PM 30.0297 -81.7458 205° Southwest 163 188 7,000  Level Jacksonville Center
07:23PM 29.9881 -81.7656 202° Southwest 162 186 7,000  Level Jacksonville Center
07:24PM 29.9486 -81.7875 206° Southwest 159 183 7,000  Level Jacksonville Center
07:25PM 29.9092 -81.8094 206° Southwest 162 186 7,100  Climbing Jacksonville Center
07:26PM 29.8656 -81.8339 206° Southwest 163 188 7,000  Descending Jacksonville Center
07:27PM 29.8239 -81.8558 205° Southwest 164 189 7,100  Climbing Jacksonville Center
07:28PM 29.7822 -81.8828 209° Southwest 166 191 7,000 -60 Descending Jacksonville Center
07:29PM 29.7386 -81.9072 206° Southwest 167 192 7,000  Level Jacksonville Center
07:30PM 29.6972 -81.9289 204° Southwest 166 191 7,000  Level Jacksonville Center
07:31PM 29.6575 -81.9533 208° Southwest 164 189 7,000  Level Jacksonville Center
07:32PM 29.6161 -81.9800 209° Southwest 164 189 7,000  Level Jacksonville Center
07:33PM 29.5786 -81.9994 204° Southwest 163 188 7,000  Level Jacksonville Center
07:34PM 29.5369 -82.0214 205° Southwest 163 188 7,000  Level Jacksonville Center
07:35PM 29.4953 -82.0431 204° Southwest 165 190 7,100  Climbing Jacksonville Center
07:36PM 29.4517 -82.0675 206° Southwest 165 190 7,000 -60 Descending Jacksonville Center
07:37PM 29.4122 -82.0917 208° Southwest 161 185 7,000 -60 Level Jacksonville Center
07:38PM 29.3706 -82.1158 207° Southwest 163 188 6,900 -60 Descending Jacksonville Center
07:39PM 29.3247 -82.1136 178° South 163 188 6,900  Level Jacksonville Center
07:40PM 29.2786 -82.1069 173° South 162 186 7,000  Climbing Jacksonville Center
07:41PM 29.2350 -82.1050 178° South 161 185 7,000  Level Jacksonville Center
07:42PM 29.1869 -82.0981 173° South 162 186 7,000  Level Jacksonville Center
07:43PM 29.1408 -82.0961 178° South 165 190 7,000  Level Jacksonville Center
07:44PM 29.0950 -82.0917 175° South 163 188 7,000  Level Jacksonville Center
07:45PM 29.0489 -82.0872 175° South 164 189 7,000  Level Jacksonville Center
07:46PM 29.0053 -82.0878 181° South 161 185 7,000  Level Jacksonville Center
07:47PM 28.9572 -82.0858 178° South 158 182 7,000  Level Jacksonville Center
07:48PM 28.9133 -82.0814 175° South 161 185 7,100  Climbing Jacksonville Center
07:49PM 28.8672 -82.0794 178° South 163 188 7,000  Descending Jacksonville Center
07:50PM 28.8236 -82.0797 180° South 163 188 7,100 -360 Climbing Jacksonville Center
07:52PM 28.7333 -82.0667 173° South 180 207 6,000 -720 Descending Tampa TRACON
07:53PM 28.6833 -82.0667 180° South 176 203 5,200 -600 Descending Tampa TRACON
07:54PM 28.6500 -82.0667 180° South 174 200 4,900 -180 Descending Tampa TRACON
07:55PM 28.6000 -82.0667 180° South 159 183 4,900 -360 Level Tampa TRACON
07:56PM 28.5500 -82.0667 180° South 162 186 4,200 -720 Descending Tampa TRACON
07:57PM 28.5000 -82.0667 180° South 171 197 3,500 -600 Descending Tampa TRACON
07:58PM 28.4667 -82.0667 180° South 174 200 3,000 -300 Descending Tampa TRACON
07:59PM 28.4167 -82.0667 180° South 158 182 3,000  Level Tampa TRACON
08:00PM 28.3667 -82.0667 180° South 145 167 3,000 -60 Level Tampa TRACON
08:01PM 28.3333 -82.0667 180° South 145 167 2,900  Descending Tampa TRACON
08:02PM 28.3000 -82.0667 180° South 145 167 3,000 60 Climbing Tampa TRACON